This is the latest recevied weather packets stored in our database for station/object es2jt. If no packets are shown the sender has not sent any weather packets the latest 10 day(s).
| Time | Temp. | Humidity | Pressure | Rain* | Wind** | Luminosity | Snow |
|---|---|---|---|---|---|---|---|
| 1777991606 | 10° C | 59% | 1001.4 hPa | 0 mm | - | - | - |
| 1777987286 | 10° C | 61% | 1001.3 hPa | 0 mm | - | - | - |
| 1777986746 | 9.44° C | 66% | 1001.1 hPa | 0 mm | - | - | - |
| 1777978105 | 10.56° C | 65% | 1000.1 hPa | 0 mm | - | - | - |
| 1777977565 | 10.56° C | 63% | 1000 hPa | 0 mm | - | - | - |
| 1777973247 | 11.67° C | 58% | 998.8 hPa | 0 mm | - | - | - |
| 1777971085 | 12.22° C | 58% | 998.4 hPa | 0 mm | - | - | - |
| 1777965686 | 12.22° C | 55% | 997.9 hPa | 0 mm | - | - | - |
| 1777963525 | 12.22° C | 58% | 997.6 hPa | 0 mm | - | - | - |
| 1777922547 | 7.78° C | 94% | 997 hPa | 0 mm | - | - | - |
| 1777921061 | 7.78° C | 94% | 997 hPa | 0 mm | - | - | - |
| 1777919847 | 7.78° C | 94% | 997 hPa | 0 mm | - | - | - |
| 1777917147 | 7.78° C | 94% | 997 hPa | 0 mm | - | - | - |
| 1777914447 | 7.78° C | 94% | 997 hPa | 0 mm | - | - | - |
| 1777913907 | 7.78° C | 94% | 997 hPa | 0 mm | - | - | - |
| 1777910667 | 7.78° C | 94% | 997 hPa | 0 mm | - | - | - |
| 1777910127 | 7.78° C | 94% | 997 hPa | 0 mm | - | - | - |
| 1777908507 | 7.78° C | 94% | 997 hPa | 0 mm | - | - | - |
| 1777905266 | 7.78° C | 94% | 997 hPa | 0 mm | - | - | - |
| 1777903107 | 7.78° C | 94% | 997 hPa | 0 mm | - | - | - |
| 1777900947 | 7.78° C | 94% | 997 hPa | 0 mm | - | - | - |
| 1777896627 | 7.78° C | 94% | 997 hPa | 1.02 mm | - | - | - |
| 1777894058 | 7.78° C | 94% | 997 hPa | 1.78 mm | - | - | - |
| 1777892307 | 8.89° C | 92% | 997.3 hPa | 1.52 mm | - | - | - |
| 1777886367 | 11.11° C | 76% | 998.5 hPa | 0.25 mm | - | - | - |
* Rain latest hour (hover to see other rain measurements)
** Current wind speed in m/s (hover to see current wind gust speed)